Aérodrome :
LOGIN :

S'inscrire | Disclaimer

   EN    FR    IT 

 










Légende :    VFR   VFR Marginal   IFR   IFR Intensif   IFR Très Intensif
Visi : 
Plafond : 
>= 8 km
>= 3000ft
5 à 8 km
1000 à 3000 ft
1500m à 5 km
500 à 1000 ft
800 à 1500m
200 à 500 ft
< 800m
< 200 ft
Symboles :   Orages  Brouillard  Fortes neiges  Fortes précipitations  Vent > 20 kt
SIGMETs :   Divers  Orages  Givrage  Turbulence  Onde Orograph.  Cendres Volcan.







- Altitude de l'aérodrome : 42 ft
- Code IATA : CAL
- Voir les cartes d'approche


EGEC - Campbeltown

DERNIER METAR :
  • 171020Z 31012KT 9999 SCT032 12/07 Q1018

METARs EXPIRÉS :
  • 170920Z 28015KT 9999 SCT045 12/08 Q1017
  • 170850Z 27015KT 9999 SCT035 SCT048 11/08 Q1016

TAF TAF EGEC
Valide du 17 à 09h jusqu'au 17 à 17h UTC


170758Z 1709/1717 30009KT 9999 SCT030
PROB30
TEMPO 1709/1712 8000 -SHRA
Pas de NOTAMs connus pour ce terrain.



MET'MAP, la Météo Aéronautique d'un coup d'oeil ! - Copyright ORBIFLY Décembre 2007 - Disclaimer

ORBIFLY MET'MAP TEAM :

Programmation & Développement : Alexandra Zaïnal
Conception & Développement : Baudouin d'Aumeries
Co-Programmation & Développement : Marc-Olivier Méhu
Soutien technique & logistique : Manuel Goepfert

Contact : metmap@orbifly.com




SOURCES & CREDITS :

   NOAA